Ararat, North Carolina
Current Conditions -  °F | °C
As of 2:35 PM on Friday 31 Oct 2014 (Local Time) from KMWK Reporting Station
Broken Clouds Broken Clouds  
Wind Chill: 55°   Ceiling: 3300
Heat Index: 55°   Visibility: 10mi
Dew Point: 41°   Wind: 5mph
Humidity: 60%   Direction: 210°SSW
Pressure: 29.87"   Gusts: NA
Location:  36.4°N, 80.56°W
Report Text: KMWK 311835Z AUTO 21004KT 10SM BKN033 BKN120 13/05 A2987 RMK AO2 T01280051
Loading
Personal Weather Stations






























Interactive Weather Map
Tropical Storm Tracking
New forecast layout! Learn more

10-Day Weather Forecast

Advertisements
Track Severe Weather on mobile